Time;durP1;ratioP1;P1;durP2;ratioP2;P2;SDS_P1;SDS_P2;PMS_P1;PMS_P2;Temp;Humidity;BMP_temperature;BMP_pressure;BME280_temperature;BME280_humidity;BME280_pressure;Samples;Min_cycle;Max_cycle;Signal;HPM_P1;HPM_P2
2022/09/05 00:00:18;;;;;;;6.40;2.70;;;18.80;67.60;;;;;;5041248;28;20505;-72
2022/09/05 00:03:13;;;;;;;4.50;2.17;;;18.70;67.70;;;;;;5020580;28;20543;-72
2022/09/05 00:05:53;;;;;;;5.17;2.63;;;18.70;67.70;;;;;;5039090;28;20461;-72
2022/09/05 00:08:39;;;;;;;5.00;2.80;;;18.70;67.80;;;;;;5036288;28;20964;-72
2022/09/05 00:11:14;;;;;;;5.33;2.50;;;18.70;67.90;;;;;;5036989;28;20995;-72
2022/09/05 00:14:26;;;;;;;5.40;2.60;;;18.70;67.90;;;;;;5027630;28;20475;-72
2022/09/05 00:17:24;;;;;;;5.63;2.73;;;18.70;67.90;;;;;;5043639;28;20476;-72
2022/09/05 00:20:22;;;;;;;5.93;2.70;;;18.60;67.90;;;;;;5025707;28;20498;-72
2022/09/05 00:23:19;;;;;;;6.13;2.80;;;18.60;68.00;;;;;;5043219;28;20463;-72
2022/09/05 00:26:20;;;;;;;4.60;2.30;;;18.50;68.00;;;;;;5018378;28;20459;-72
2022/09/05 00:28:57;;;;;;;5.23;2.30;;;18.50;68.20;;;;;;5018283;28;20461;-72
2022/09/05 00:31:47;;;;;;;5.60;2.30;;;18.50;68.20;;;;;;5040746;28;20464;-72
2022/09/05 00:34:43;;;;;;;6.67;2.60;;;18.50;68.20;;;;;;5038577;28;20561;-72
2022/09/05 00:37:27;;;;;;;4.40;2.03;;;18.40;68.40;;;;;;5025492;28;20458;-72
2022/09/05 00:40:11;;;;;;;5.00;2.40;;;18.50;68.50;;;;;;5037777;28;20493;-72
2022/09/05 00:42:48;;;;;;;4.80;2.30;;;18.50;68.40;;;;;;5038518;28;20474;-72
2022/09/05 00:45:26;;;;;;;4.90;2.70;;;18.50;68.40;;;;;;5035931;28;21064;-72
2022/09/05 00:48:05;;;;;;;5.70;2.53;;;18.50;68.60;;;;;;5035243;28;21180;-71
2022/09/05 00:50:39;;;;;;;5.03;2.50;;;18.50;68.70;;;;;;5025350;28;20479;-72
2022/09/05 00:53:13;;;;;;;6.60;2.70;;;18.50;68.70;;;;;;5022939;28;20462;-71
2022/09/05 00:55:52;;;;;;;4.80;2.40;;;18.50;68.60;;;;;;5035334;28;20459;-72
2022/09/05 00:58:42;;;;;;;5.37;2.70;;;18.50;68.60;;;;;;5035314;28;20487;-72
2022/09/05 01:01:26;;;;;;;5.20;2.47;;;18.50;68.60;;;;;;5035605;28;20478;-72
2022/09/05 01:04:11;;;;;;;5.23;2.70;;;18.40;68.70;;;;;;5036388;28;20883;-72
2022/09/05 01:06:50;;;;;;;6.90;2.57;;;18.40;68.70;;;;;;5012544;28;20468;-72
2022/09/05 01:09:38;;;;;;;5.60;2.80;;;18.40;68.80;;;;;;5036351;28;20470;-72
2022/09/05 01:12:31;;;;;;;5.27;2.57;;;18.40;68.80;;;;;;5037189;28;20448;-72
2022/09/05 01:15:19;;;;;;;5.33;2.83;;;18.30;68.80;;;;;;5041450;28;20827;-72
2022/09/05 01:18:02;;;;;;;5.33;2.80;;;18.30;68.70;;;;;;5038130;28;20495;-72
2022/09/05 01:20:47;;;;;;;5.87;2.70;;;18.20;68.70;;;;;;5039144;28;20493;-72
2022/09/05 01:23:38;;;;;;;4.40;2.40;;;18.20;68.70;;;;;;5035453;28;20525;-72
2022/09/05 01:26:29;;;;;;;10.87;3.00;;;18.10;68.80;;;;;;5035515;28;20459;-72
2022/09/05 01:29:05;;;;;;;5.30;2.43;;;18.10;68.90;;;;;;5040030;28;20486;-72
2022/09/05 01:31:59;;;;;;;5.70;2.80;;;18.00;69.00;;;;;;5035841;28;20513;-72
2022/09/05 01:34:34;;;;;;;6.00;3.17;;;18.00;69.10;;;;;;5037232;28;20492;-72
2022/09/05 01:37:10;;;;;;;5.23;2.80;;;18.00;69.30;;;;;;5036565;28;20467;-72
2022/09/05 01:40:14;;;;;;;4.77;2.23;;;17.90;69.20;;;;;;5038571;28;20479;-72
2022/09/05 01:43:00;;;;;;;4.47;2.40;;;17.90;69.30;;;;;;5033610;28;20468;-72
2022/09/05 01:45:45;;;;;;;5.80;2.90;;;17.90;69.20;;;;;;5035146;28;20458;-72
2022/09/05 01:48:27;;;;;;;6.10;3.13;;;17.80;69.30;;;;;;5037270;28;20516;-72
2022/09/05 01:51:12;;;;;;;6.03;2.67;;;17.70;69.40;;;;;;5019216;28;20484;-72
2022/09/05 01:54:14;;;;;;;6.13;3.10;;;17.70;69.50;;;;;;5037268;28;20844;-73
2022/09/05 01:57:11;;;;;;;5.10;2.67;;;17.70;69.80;;;;;;5037221;28;20464;-73
2022/09/05 01:59:50;;;;;;;5.13;3.03;;;17.70;69.90;;;;;;5018670;28;21119;-73
2022/09/05 02:02:31;;;;;;;5.17;3.03;;;17.70;69.90;;;;;;5033530;28;20517;-73
2022/09/05 02:05:20;;;;;;;4.63;2.50;;;17.70;69.90;;;;;;5033111;28;20569;-72
2022/09/05 02:08:39;;;;;;;5.43;2.87;;;17.70;70.10;;;;;;5020973;28;20467;-72
2022/09/05 02:11:10;;;;;;;5.30;2.60;;;17.70;70.30;;;;;;5037114;28;20578;-72
2022/09/05 02:13:52;;;;;;;5.03;3.00;;;17.80;70.30;;;;;;5032967;28;20962;-73
2022/09/05 02:16:26;;;;;;;6.80;2.90;;;17.80;70.30;;;;;;5019764;28;20465;-72
2022/09/05 02:19:03;;;;;;;5.37;3.17;;;17.80;70.30;;;;;;5015431;28;20460;-72
2022/09/05 02:21:40;;;;;;;5.60;2.80;;;17.80;70.50;;;;;;5037502;28;21025;-72
2022/09/05 02:24:28;;;;;;;5.40;2.90;;;17.70;70.60;;;;;;5041007;28;21351;-72
2022/09/05 02:27:17;;;;;;;7.20;3.00;;;17.80;70.80;;;;;;5043945;28;20460;-72
2022/09/05 02:30:09;;;;;;;5.00;2.63;;;17.80;70.70;;;;;;5022809;28;20477;-72
2022/09/05 02:32:51;;;;;;;5.50;2.90;;;17.80;70.60;;;;;;5040092;28;20463;-72
2022/09/05 02:35:29;;;;;;;19.40;3.40;;;17.80;70.50;;;;;;5023418;28;20486;-72
2022/09/05 02:38:05;;;;;;;7.47;3.73;;;17.80;70.50;;;;;;5041551;28;20534;-72
2022/09/05 02:40:58;;;;;;;4.60;2.70;;;17.70;70.40;;;;;;5042803;28;20484;-72
2022/09/05 02:43:54;;;;;;;6.07;3.07;;;17.70;70.50;;;;;;5046159;28;20459;-72
2022/09/05 02:46:53;;;;;;;6.47;3.00;;;17.70;70.40;;;;;;5038891;28;21172;-72
2022/09/05 02:49:30;;;;;;;5.43;2.50;;;17.70;70.50;;;;;;5040390;28;20485;-72
2022/09/05 02:52:20;;;;;;;5.33;3.10;;;17.70;70.50;;;;;;5021436;28;20467;-72
2022/09/05 02:55:16;;;;;;;4.97;2.73;;;17.60;70.50;;;;;;5042287;28;20475;-72
2022/09/05 02:58:38;;;;;;;6.57;3.30;;;17.60;70.60;;;;;;5043141;28;20471;-73
2022/09/05 03:01:52;;;;;;;7.10;3.27;;;17.60;70.70;;;;;;5019682;28;20475;-72
2022/09/05 03:04:31;;;;;;;5.70;3.20;;;17.60;70.70;;;;;;5044845;28;20821;-72
2022/09/05 03:07:10;;;;;;;11.70;3.40;;;17.60;70.80;;;;;;5028590;28;20992;-72
2022/09/05 03:09:58;;;;;;;5.83;3.40;;;17.60;70.80;;;;;;5036763;28;20575;-72
2022/09/05 03:12:51;;;;;;;7.00;3.50;;;17.60;70.80;;;;;;5038878;28;20462;-72
2022/09/05 03:16:09;;;;;;;5.30;3.00;;;17.50;70.80;;;;;;5036914;28;20486;-72
2022/09/05 03:19:16;;;;;;;5.53;2.93;;;17.50;70.90;;;;;;5014968;28;20812;-72
2022/09/05 03:22:12;;;;;;;6.00;3.33;;;17.50;71.00;;;;;;5022091;28;20471;-72
2022/09/05 03:25:25;;;;;;;6.67;3.73;;;17.50;71.00;;;;;;5025652;28;20827;-72
2022/09/05 03:28:28;;;;;;;7.37;3.40;;;17.40;70.90;;;;;;5038572;28;20477;-72
2022/09/05 03:31:13;;;;;;;5.50;3.20;;;17.40;70.80;;;;;;5037753;28;20862;-72
2022/09/05 03:34:26;;;;;;;5.37;3.10;;;17.30;70.90;;;;;;5028532;28;20459;-72
2022/09/05 03:37:35;;;;;;;5.40;3.30;;;17.30;71.00;;;;;;5013937;28;20471;-72
2022/09/05 03:40:33;;;;;;;5.90;2.93;;;17.30;71.10;;;;;;5042659;28;21023;-72
2022/09/05 03:43:30;;;;;;;5.37;3.40;;;17.30;71.20;;;;;;5038480;28;20458;-72
2022/09/05 03:46:08;;;;;;;5.90;3.37;;;17.30;71.30;;;;;;5039203;28;20459;-72
2022/09/05 03:49:08;;;;;;;6.33;3.47;;;17.30;71.20;;;;;;5038215;28;20456;-72
2022/09/05 03:52:08;;;;;;;5.77;3.40;;;17.30;71.20;;;;;;5040170;28;20456;-72
2022/09/05 03:55:28;;;;;;;5.30;3.33;;;17.20;71.00;;;;;;5038876;28;20466;-72
2022/09/05 03:58:43;;;;;;;5.60;3.50;;;17.20;71.00;;;;;;5039307;28;21035;-72
2022/09/05 04:01:34;;;;;;;8.07;3.33;;;17.10;71.00;;;;;;5038608;28;20513;-72
2022/09/05 04:04:28;;;;;;;6.40;3.50;;;17.10;71.10;;;;;;5035720;28;20462;-72
2022/09/05 04:07:20;;;;;;;7.10;3.70;;;17.10;71.30;;;;;;5039315;28;20455;-72
2022/09/05 04:10:21;;;;;;;6.27;3.20;;;17.10;71.30;;;;;;5039755;28;20860;-72
2022/09/05 04:12:54;;;;;;;5.57;3.27;;;17.10;71.40;;;;;;5036864;28;20508;-72
2022/09/05 04:15:32;;;;;;;5.73;3.27;;;17.00;71.30;;;;;;5038640;28;20486;-72
2022/09/05 04:18:03;;;;;;;5.90;3.60;;;17.00;71.30;;;;;;5027372;28;20537;-72
2022/09/05 04:20:39;;;;;;;5.10;3.10;;;17.00;71.40;;;;;;5039823;28;20549;-72
2022/09/05 04:23:25;;;;;;;6.07;3.50;;;17.00;71.40;;;;;;5041197;28;20463;-72
2022/09/05 04:26:02;;;;;;;5.47;3.43;;;16.90;71.50;;;;;;5034896;28;20456;-72
2022/09/05 04:28:51;;;;;;;5.67;3.47;;;16.90;71.50;;;;;;5039493;28;20463;-72
2022/09/05 04:31:38;;;;;;;5.63;3.40;;;16.90;71.50;;;;;;5039174;28;20551;-72
2022/09/05 04:34:31;;;;;;;5.37;3.40;;;16.90;71.50;;;;;;5038197;28;20459;-72
2022/09/05 04:37:02;;;;;;;5.60;3.33;;;16.90;71.50;;;;;;5041800;28;20475;-72
2022/09/05 04:39:31;;;;;;;7.40;4.20;;;16.80;71.40;;;;;;5037337;28;20489;-72
2022/09/05 04:42:14;;;;;;;6.23;3.60;;;16.90;71.40;;;;;;5041208;28;20475;-73
2022/09/05 04:44:46;;;;;;;5.77;3.50;;;16.90;71.40;;;;;;5037125;28;20460;-72
2022/09/05 04:47:20;;;;;;;5.60;3.20;;;16.80;71.30;;;;;;5040088;28;20451;-72
2022/09/05 04:49:56;;;;;;;5.77;3.77;;;16.80;71.30;;;;;;5046331;28;20552;-72
2022/09/05 04:52:54;;;;;;;5.40;3.50;;;16.80;71.40;;;;;;5037576;28;20465;-72
2022/09/05 04:55:25;;;;;;;8.07;3.57;;;16.80;71.50;;;;;;5019671;28;20475;-72
2022/09/05 04:57:58;;;;;;;8.83;4.10;;;16.80;71.40;;;;;;5042756;28;20469;-73
2022/09/05 05:00:33;;;;;;;9.83;3.50;;;16.70;71.30;;;;;;5041967;28;20494;-73
2022/09/05 05:03:27;;;;;;;6.07;3.60;;;16.70;71.20;;;;;;5040823;28;20948;-72
2022/09/05 05:06:23;;;;;;;6.40;3.70;;;16.70;71.20;;;;;;5042140;28;20463;-72
2022/09/05 05:09:16;;;;;;;6.60;3.80;;;16.60;71.20;;;;;;5033938;28;20467;-72
2022/09/05 05:11:50;;;;;;;7.17;4.40;;;16.60;71.20;;;;;;5033714;28;20469;-73
2022/09/05 05:14:42;;;;;;;6.70;3.70;;;16.60;71.40;;;;;;5016719;28;20463;-73
2022/09/05 05:17:34;;;;;;;5.80;3.50;;;17.10;73.30;;;;;;5036464;28;20477;-73
2022/09/05 05:20:28;;;;;;;5.93;3.40;;;18.30;73.40;;;;;;5020294;28;20502;-73
2022/09/05 05:23:13;;;;;;;7.37;3.73;;;19.20;70.30;;;;;;5040145;28;20533;-73
2022/09/05 05:25:47;;;;;;;6.73;3.37;;;19.20;68.50;;;;;;5036222;28;20468;-73
2022/09/05 05:28:24;;;;;;;7.87;3.80;;;18.90;68.00;;;;;;5020439;28;20455;-73
2022/09/05 05:30:54;;;;;;;7.73;4.20;;;18.60;68.20;;;;;;5038027;28;20863;-72
2022/09/05 05:33:32;;;;;;;8.20;4.07;;;18.30;68.40;;;;;;5025590;28;20455;-72
2022/09/05 05:36:05;;;;;;;8.63;4.63;;;18.10;68.70;;;;;;5044593;28;20558;-72
2022/09/05 05:38:43;;;;;;;7.17;4.70;;;18.00;69.10;;;;;;5040997;28;20448;-72
2022/09/05 05:41:17;;;;;;;7.30;4.30;;;18.00;69.50;;;;;;5037422;28;20471;-72
2022/09/05 05:43:46;;;;;;;9.10;4.40;;;17.90;69.70;;;;;;5039593;28;20458;-72
2022/09/05 05:46:27;;;;;;;7.70;4.70;;;17.80;69.70;;;;;;5039333;28;20474;-72
2022/09/05 05:49:07;;;;;;;9.17;4.43;;;17.70;69.80;;;;;;5039570;28;20528;-73
2022/09/05 05:51:44;;;;;;;9.03;5.20;;;17.60;70.10;;;;;;5036768;28;20462;-72
2022/09/05 05:54:37;;;;;;;7.27;4.20;;;17.50;70.40;;;;;;5037013;28;20458;-73
2022/09/05 05:57:39;;;;;;;8.23;5.43;;;17.40;70.80;;;;;;5040018;28;20499;-72
2022/09/05 06:00:18;;;;;;;10.50;5.00;;;17.40;71.10;;;;;;5037485;28;20586;-72
2022/09/05 06:03:38;;;;;;;9.30;4.67;;;17.40;71.50;;;;;;5040334;28;21013;-72
2022/09/05 06:06:21;;;;;;;8.37;5.80;;;17.40;71.90;;;;;;5041063;28;20517;-72
2022/09/05 06:09:31;;;;;;;8.90;4.57;;;17.40;72.10;;;;;;5034410;28;20456;-71
2022/09/05 06:12:51;;;;;;;9.23;6.20;;;17.40;72.40;;;;;;5033764;28;20475;-72
2022/09/05 06:16:07;;;;;;;8.07;4.70;;;17.40;72.80;;;;;;5013076;28;20475;-72
2022/09/05 06:19:13;;;;;;;7.57;5.00;;;17.40;73.40;;;;;;5036044;28;20455;-72
2022/09/05 06:22:12;;;;;;;7.80;5.40;;;17.50;73.50;;;;;;5006297;28;20460;-72
2022/09/05 06:25:33;;;;;;;11.20;6.43;;;17.60;73.90;;;;;;5038663;28;20455;-74
2022/09/05 06:28:17;;;;;;;13.83;6.50;;;17.70;74.00;;;;;;5020014;28;20470;-74
2022/09/05 06:30:58;;;;;;;10.90;6.13;;;17.80;74.30;;;;;;5016651;28;20494;-73
2022/09/05 06:33:58;;;;;;;10.07;5.93;;;17.80;74.60;;;;;;5034247;28;20475;-74
2022/09/05 06:36:42;;;;;;;21.30;7.33;;;18.00;74.60;;;;;;5037016;28;20474;-74
2022/09/05 06:39:17;;;;;;;18.27;11.20;;;18.10;74.80;;;;;;5036627;28;20467;-74
2022/09/05 06:42:09;;;;;;;18.17;9.50;;;18.20;74.90;;;;;;5035160;28;20458;-72
2022/09/05 06:45:16;;;;;;;13.10;7.07;;;18.30;75.00;;;;;;5038514;28;20837;-72
2022/09/05 06:48:03;;;;;;;17.70;9.40;;;18.40;75.00;;;;;;5034324;28;20455;-72
2022/09/05 06:50:43;;;;;;;20.33;9.40;;;18.40;75.20;;;;;;5036385;28;20514;-72
2022/09/05 06:54:10;;;;;;;16.33;6.93;;;18.50;75.40;;;;;;5039082;28;20462;-72
2022/09/05 06:57:00;;;;;;;11.30;6.27;;;18.60;75.50;;;;;;5033216;28;21250;-71
2022/09/05 07:00:01;;;;;;;9.73;6.00;;;18.60;75.70;;;;;;5028620;28;20507;-71
2022/09/05 07:02:33;;;;;;;11.90;5.30;;;18.80;75.80;;;;;;5031629;28;20454;-70
2022/09/05 07:05:31;;;;;;;8.50;4.77;;;18.90;75.90;;;;;;5035665;28;20460;-71
2022/09/05 07:08:22;;;;;;;7.97;5.17;;;19.00;76.00;;;;;;5036185;28;20687;-71
2022/09/05 07:11:07;;;;;;;8.90;6.50;;;19.10;75.90;;;;;;5022425;28;20473;-71
2022/09/05 07:13:54;;;;;;;11.93;5.77;;;19.20;75.90;;;;;;5039018;28;20550;-71
2022/09/05 07:16:33;;;;;;;9.17;5.37;;;19.30;75.90;;;;;;5037939;28;20464;-71
2022/09/05 07:19:23;;;;;;;8.27;4.27;;;19.40;75.90;;;;;;5044404;28;20472;-71
2022/09/05 07:22:12;;;;;;;9.43;5.17;;;19.50;75.90;;;;;;5037672;28;20467;-71
2022/09/05 07:25:06;;;;;;;8.83;4.80;;;19.60;75.90;;;;;;5039534;28;20491;-71
2022/09/05 07:27:39;;;;;;;6.70;4.10;;;19.60;75.80;;;;;;5039803;28;20828;-71
2022/09/05 07:30:29;;;;;;;8.23;5.10;;;19.70;75.80;;;;;;5035768;28;20488;-71
2022/09/05 07:33:01;;;;;;;8.50;5.10;;;19.70;75.80;;;;;;5034900;28;20472;-71
2022/09/05 07:35:32;;;;;;;9.03;5.33;;;19.80;75.90;;;;;;5035371;28;20454;-71
2022/09/05 07:38:14;;;;;;;6.63;4.13;;;19.90;76.00;;;;;;5037616;28;20492;-70
2022/09/05 07:40:51;;;;;;;10.50;4.97;;;20.00;76.00;;;;;;5026870;28;22097;-70
2022/09/05 07:43:24;;;;;;;8.10;5.07;;;20.00;76.00;;;;;;5018464;28;20467;-70
2022/09/05 07:46:10;;;;;;;6.10;4.00;;;20.10;76.00;;;;;;5043343;28;20469;-70
2022/09/05 07:48:43;;;;;;;9.23;4.87;;;20.20;76.10;;;;;;5038791;28;20562;-73
2022/09/05 07:51:19;;;;;;;7.83;4.70;;;20.30;76.00;;;;;;5027619;28;20590;-73
2022/09/05 07:54:11;;;;;;;7.63;4.10;;;20.30;75.90;;;;;;5040530;28;20466;-72
2022/09/05 07:57:03;;;;;;;7.07;4.27;;;20.40;75.90;;;;;;5040664;28;20533;-73
2022/09/05 07:59:54;;;;;;;6.50;4.20;;;20.50;75.80;;;;;;5037210;28;20500;-73
2022/09/05 08:02:24;;;;;;;14.80;4.43;;;20.60;75.80;;;;;;5039583;28;20464;-72
2022/09/05 08:04:52;;;;;;;9.97;4.50;;;20.80;75.70;;;;;;5040563;28;20465;-72
2022/09/05 08:07:24;;;;;;;7.73;3.77;;;20.90;75.60;;;;;;5038736;28;20925;-73
2022/09/05 08:10:16;;;;;;;12.90;4.07;;;21.00;75.40;;;;;;5038204;28;21368;-73
2022/09/05 08:13:02;;;;;;;8.07;3.90;;;21.10;75.30;;;;;;5020235;28;21109;-73
2022/09/05 08:15:53;;;;;;;13.70;5.90;;;21.20;75.00;;;;;;5039348;28;20490;-73
2022/09/05 08:18:48;;;;;;;8.90;4.27;;;21.30;74.80;;;;;;5034540;28;20471;-73
2022/09/05 08:21:22;;;;;;;9.83;3.77;;;21.40;74.60;;;;;;5040749;28;20527;-73
2022/09/05 08:24:08;;;;;;;7.80;3.57;;;21.50;74.40;;;;;;5039315;28;21201;-73
2022/09/05 08:26:44;;;;;;;6.83;3.30;;;21.60;74.20;;;;;;5035979;28;20504;-73
2022/09/05 08:29:26;;;;;;;8.20;3.20;;;21.70;74.00;;;;;;5034013;28;20556;-73
2022/09/05 08:32:01;;;;;;;9.50;3.63;;;21.80;73.80;;;;;;5037638;28;20463;-73
2022/09/05 08:34:39;;;;;;;6.27;3.30;;;21.90;73.60;;;;;;5037919;28;20464;-73
2022/09/05 08:37:16;;;;;;;6.60;3.47;;;21.90;73.50;;;;;;5041364;28;20509;-74
2022/09/05 08:39:51;;;;;;;9.10;3.20;;;22.00;73.40;;;;;;5042113;28;20483;-74
2022/09/05 08:42:45;;;;;;;5.47;2.90;;;22.10;73.30;;;;;;5018641;28;20640;-74
2022/09/05 08:45:42;;;;;;;6.80;2.80;;;22.20;73.10;;;;;;5039072;28;20465;-74
2022/09/05 08:48:44;;;;;;;14.03;3.70;;;22.20;72.90;;;;;;5038674;28;21264;-74
2022/09/05 08:51:26;;;;;;;10.30;3.33;;;22.30;72.70;;;;;;5039962;28;20478;-74
2022/09/05 08:54:14;;;;;;;7.60;3.13;;;22.40;72.50;;;;;;5038361;28;20474;-74
2022/09/05 08:56:52;;;;;;;7.80;2.90;;;22.50;72.30;;;;;;5037899;28;20481;-74
2022/09/05 08:59:33;;;;;;;5.83;3.60;;;22.50;72.10;;;;;;5040666;28;20498;-74
2022/09/05 09:02:37;;;;;;;7.63;2.77;;;22.50;72.00;;;;;;5039477;28;20454;-74
2022/09/05 09:05:26;;;;;;;10.27;3.03;;;22.60;71.90;;;;;;5029149;28;20765;-74
2022/09/05 09:08:22;;;;;;;9.30;3.00;;;22.60;71.80;;;;;;5038723;28;20501;-74
2022/09/05 09:10:56;;;;;;;8.00;3.00;;;22.70;71.80;;;;;;5037089;28;21078;-74
2022/09/05 09:13:38;;;;;;;5.60;3.20;;;22.80;71.60;;;;;;5024324;28;20466;-74
2022/09/05 09:16:11;;;;;;;10.50;3.00;;;22.90;71.50;;;;;;5039509;28;20460;-74
2022/09/05 09:19:02;;;;;;;7.03;2.90;;;22.90;71.30;;;;;;5038695;28;20490;-74
2022/09/05 09:21:39;;;;;;;5.70;2.70;;;23.00;71.00;;;;;;5039581;28;21072;-74
2022/09/05 09:24:22;;;;;;;5.23;2.83;;;23.20;70.60;;;;;;5039100;28;20470;-74
2022/09/05 09:26:56;;;;;;;6.23;2.40;;;23.30;70.90;;;;;;5034587;28;20463;-74
2022/09/05 09:29:26;;;;;;;5.63;2.17;;;23.50;70.50;;;;;;5037398;28;20487;-74
2022/09/05 09:32:04;;;;;;;4.97;2.60;;;23.60;70.10;;;;;;5035617;28;20475;-74
2022/09/05 09:34:53;;;;;;;3.93;2.00;;;23.70;69.70;;;;;;5040943;28;20456;-74
2022/09/05 09:37:58;;;;;;;7.33;2.70;;;23.70;68.80;;;;;;5035693;28;20462;-74
2022/09/05 09:40:44;;;;;;;8.00;2.73;;;23.80;68.00;;;;;;5035014;28;20475;-74
2022/09/05 09:43:34;;;;;;;4.57;2.03;;;23.90;68.00;;;;;;5033655;28;20456;-74
2022/09/05 09:46:16;;;;;;;5.57;2.30;;;24.00;67.80;;;;;;5036249;28;20454;-74
2022/09/05 09:49:02;;;;;;;5.20;2.20;;;24.10;67.40;;;;;;5040724;28;21030;-74
2022/09/05 09:52:04;;;;;;;5.80;2.30;;;24.20;66.80;;;;;;5039563;28;20462;-74
2022/09/05 09:55:22;;;;;;;5.67;2.17;;;24.30;65.40;;;;;;5034939;28;20465;-74
2022/09/05 09:58:20;;;;;;;4.80;2.10;;;24.40;66.00;;;;;;5020968;28;20576;-74
2022/09/05 10:01:00;;;;;;;4.70;1.70;;;24.50;65.60;;;;;;5031696;28;20502;-74
2022/09/05 10:03:57;;;;;;;4.40;2.10;;;24.50;65.00;;;;;;5040127;28;20457;-74
2022/09/05 10:07:31;;;;;;;4.40;1.83;;;24.60;64.50;;;;;;5022223;28;20975;-74
2022/09/05 10:10:45;;;;;;;5.03;2.33;;;24.70;63.90;;;;;;5035216;28;20486;-74
2022/09/05 10:14:07;;;;;;;6.50;2.00;;;24.80;63.60;;;;;;5026908;28;20462;-74
2022/09/05 10:17:33;;;;;;;4.30;1.90;;;24.90;62.80;;;;;;5038770;28;20473;-74
2022/09/05 10:20:42;;;;;;;5.80;1.87;;;25.00;63.10;;;;;;5021550;28;20509;-74
2022/09/05 10:24:01;;;;;;;4.67;1.90;;;25.00;62.80;;;;;;5035773;28;21113;-74
2022/09/05 10:27:04;;;;;;;5.53;1.63;;;25.00;62.60;;;;;;5002685;28;20906;-74
2022/09/05 10:30:02;;;;;;;4.40;1.93;;;25.10;62.20;;;;;;5035678;28;20556;-74
2022/09/05 10:32:40;;;;;;;6.10;2.10;;;25.20;61.90;;;;;;5032249;28;20854;-74
2022/09/05 10:35:34;;;;;;;5.20;2.00;;;25.20;61.20;;;;;;5031619;28;20477;-74
2022/09/05 10:38:10;;;;;;;3.80;1.57;;;25.30;60.00;;;;;;5037724;28;20493;-74
2022/09/05 10:40:42;;;;;;;5.63;1.80;;;25.30;60.80;;;;;;5034044;28;20502;-74
2022/09/05 10:43:33;;;;;;;6.10;2.07;;;25.40;60.60;;;;;;5036860;28;20467;-74
2022/09/05 10:46:14;;;;;;;4.73;1.97;;;25.40;60.30;;;;;;5040406;28;20463;-74
2022/09/05 10:49:09;;;;;;;4.50;1.70;;;25.50;60.20;;;;;;5042855;28;20465;-74
2022/09/05 10:51:45;;;;;;;4.47;1.57;;;25.50;59.90;;;;;;5039647;28;20454;-74
2022/09/05 10:54:38;;;;;;;6.47;2.07;;;25.60;59.40;;;;;;5032124;28;20574;-74
2022/09/05 10:57:21;;;;;;;4.63;2.00;;;25.70;59.00;;;;;;5038132;28;20445;-74
2022/09/05 11:00:12;;;;;;;5.17;2.13;;;25.80;58.30;;;;;;5036579;28;21030;-74
2022/09/05 11:03:01;;;;;;;4.30;1.70;;;25.80;57.30;;;;;;5041885;28;20464;-74
2022/09/05 11:05:36;;;;;;;7.23;2.00;;;25.90;58.00;;;;;;5037856;28;20457;-74
2022/09/05 11:08:09;;;;;;;4.37;1.87;;;26.00;57.90;;;;;;5036135;28;20446;-74
2022/09/05 11:10:48;;;;;;;7.80;2.20;;;26.10;57.80;;;;;;5032676;28;20484;-74
2022/09/05 11:13:42;;;;;;;5.20;1.80;;;26.00;57.70;;;;;;5035980;28;20537;-74
2022/09/05 11:16:20;;;;;;;4.40;1.80;;;26.00;57.40;;;;;;5037419;28;20477;-74
2022/09/05 11:18:57;;;;;;;4.50;2.00;;;26.10;57.70;;;;;;5040071;28;20472;-74
2022/09/05 11:21:50;;;;;;;5.33;2.47;;;26.10;57.50;;;;;;5033346;28;20482;-73
2022/09/05 11:24:31;;;;;;;4.67;1.90;;;26.20;57.10;;;;;;5035496;28;20451;-74
2022/09/05 11:27:03;;;;;;;4.30;1.70;;;26.30;56.90;;;;;;5042191;28;20467;-74
2022/09/05 11:29:57;;;;;;;5.43;1.53;;;26.30;56.60;;;;;;5020300;28;21000;-74
2022/09/05 11:32:56;;;;;;;5.40;1.90;;;26.30;56.00;;;;;;5035820;28;20960;-73
2022/09/05 11:35:49;;;;;;;4.27;1.93;;;26.30;55.70;;;;;;5025532;28;20467;-74
2022/09/05 11:39:00;;;;;;;6.37;2.00;;;26.20;55.50;;;;;;5034061;28;20471;-74
2022/09/05 11:42:29;;;;;;;4.77;1.63;;;26.10;55.30;;;;;;5034998;28;20552;-74
2022/09/05 11:49:44;;;;;;;5.13;1.50;;;26.10;55.50;;;;;;5038891;28;20453;-74
2022/09/05 11:52:45;;;;;;;7.23;2.17;;;26.20;55.40;;;;;;5025363;28;20468;-74
2022/09/05 11:55:38;;;;;;;4.10;1.73;;;26.20;55.40;;;;;;5040745;28;20458;-74
2022/09/05 11:58:23;;;;;;;5.30;1.77;;;26.20;55.30;;;;;;5043864;28;20987;-73
2022/09/05 12:01:19;;;;;;;5.80;1.60;;;26.20;55.30;;;;;;5020899;28;21113;-74
2022/09/05 12:04:27;;;;;;;4.90;1.97;;;26.20;55.30;;;;;;5036801;28;20459;-74
2022/09/05 12:07:16;;;;;;;5.43;1.90;;;26.20;55.20;;;;;;5041706;28;20451;-73
2022/09/05 12:10:14;;;;;;;4.43;1.77;;;26.20;54.90;;;;;;5036074;28;20472;-74
2022/09/05 12:13:32;;;;;;;5.60;1.90;;;26.20;55.10;;;;;;5039698;28;20981;-74
2022/09/05 12:16:02;;;;;;;4.80;1.70;;;26.20;55.00;;;;;;5038453;28;20452;-74
2022/09/05 12:18:43;;;;;;;5.53;2.07;;;26.20;55.00;;;;;;5041527;28;20448;-74
2022/09/05 12:21:26;;;;;;;4.30;1.90;;;26.20;55.00;;;;;;5037471;28;20997;-73
2022/09/05 12:24:02;;;;;;;5.60;1.73;;;26.10;54.80;;;;;;5044627;28;20452;-73
2022/09/05 12:26:57;;;;;;;5.23;2.30;;;26.00;54.90;;;;;;5039362;28;21208;-73
2022/09/05 12:29:54;;;;;;;4.60;1.90;;;26.00;54.90;;;;;;5039614;28;20485;-73
2022/09/05 12:32:28;;;;;;;5.50;1.90;;;25.90;55.00;;;;;;5036575;28;20469;-72
2022/09/05 12:35:24;;;;;;;5.63;1.70;;;25.90;55.10;;;;;;5034806;28;20471;-73
2022/09/05 12:38:29;;;;;;;4.83;1.80;;;25.90;55.20;;;;;;5039717;28;20491;-73
2022/09/05 12:41:20;;;;;;;7.00;2.07;;;26.00;55.30;;;;;;5035584;28;20462;-73
2022/09/05 12:44:49;;;;;;;5.30;1.63;;;26.10;55.30;;;;;;5038929;28;20511;-73
2022/09/05 12:47:22;;;;;;;5.20;1.80;;;26.20;55.20;;;;;;5038504;28;20468;-73
2022/09/05 12:50:00;;;;;;;8.53;1.40;;;26.30;55.10;;;;;;5040227;28;20480;-73
2022/09/05 12:52:45;;;;;;;4.73;1.87;;;26.30;55.00;;;;;;5018331;28;21073;-73
2022/09/05 12:55:24;;;;;;;6.63;2.63;;;26.40;54.90;;;;;;5036888;28;20455;-73
2022/09/05 12:57:59;;;;;;;4.40;1.77;;;26.40;54.90;;;;;;5040224;28;21161;-73
2022/09/05 13:00:49;;;;;;;6.10;2.03;;;26.40;54.80;;;;;;5036831;28;20502;-73
2022/09/05 13:03:48;;;;;;;6.90;1.63;;;26.40;54.90;;;;;;5036557;28;20464;-73
2022/09/05 13:06:44;;;;;;;5.00;1.93;;;26.40;54.70;;;;;;5040559;28;20489;-73
2022/09/05 13:09:20;;;;;;;5.00;2.00;;;26.40;54.70;;;;;;5039525;28;20549;-73
2022/09/05 13:11:58;;;;;;;4.40;1.50;;;26.40;54.70;;;;;;5036963;28;20571;-73
2022/09/05 13:14:57;;;;;;;4.10;1.70;;;26.40;54.70;;;;;;5039760;28;20479;-73
2022/09/05 13:17:50;;;;;;;5.70;1.80;;;26.40;54.30;;;;;;5039449;28;20504;-73
2022/09/05 13:20:31;;;;;;;4.23;1.80;;;26.50;54.50;;;;;;5039657;28;20490;-73
2022/09/05 13:23:03;;;;;;;3.93;1.53;;;26.60;54.20;;;;;;5037639;28;20460;-73
2022/09/05 13:25:34;;;;;;;5.37;2.23;;;26.60;54.10;;;;;;5040326;28;20468;-73
2022/09/05 13:28:07;;;;;;;5.63;1.70;;;26.70;54.00;;;;;;5040171;28;20556;-73
2022/09/05 13:30:38;;;;;;;4.43;1.60;;;26.70;53.80;;;;;;5034756;28;20541;-73
2022/09/05 13:33:37;;;;;;;4.37;1.60;;;26.80;53.70;;;;;;5034189;28;20462;-73
2022/09/05 13:36:29;;;;;;;4.67;1.87;;;26.80;53.50;;;;;;5038628;28;20504;-73
2022/09/05 13:39:21;;;;;;;6.10;1.47;;;26.90;53.40;;;;;;5036620;28;20485;-73
2022/09/05 13:41:58;;;;;;;5.70;1.53;;;27.00;53.30;;;;;;5042237;28;20469;-73
2022/09/05 13:44:28;;;;;;;6.23;1.57;;;27.10;53.10;;;;;;5037012;28;20467;-73
2022/09/05 13:47:04;;;;;;;5.27;1.70;;;27.20;53.00;;;;;;5039693;28;21051;-73
2022/09/05 13:50:07;;;;;;;4.10;1.60;;;27.30;52.80;;;;;;5038216;28;20966;-73
2022/09/05 13:52:39;;;;;;;5.20;1.73;;;27.30;52.80;;;;;;5034029;28;20466;-73
2022/09/05 13:55:19;;;;;;;8.80;1.70;;;27.40;52.70;;;;;;5038926;28;20455;-74
2022/09/05 13:57:53;;;;;;;4.40;1.53;;;27.40;52.60;;;;;;5039938;28;20464;-73
2022/09/05 14:01:10;;;;;;;4.10;1.67;;;27.40;52.30;;;;;;5025470;28;20492;-73
2022/09/05 14:03:58;;;;;;;5.53;1.93;;;27.40;52.30;;;;;;5035488;28;20634;-73
2022/09/05 14:07:05;;;;;;;4.67;1.60;;;27.40;52.40;;;;;;5031922;28;20469;-73
2022/09/05 14:10:07;;;;;;;5.60;2.10;;;27.40;52.40;;;;;;5037468;28;20481;-73
2022/09/05 14:12:39;;;;;;;5.33;2.23;;;27.40;52.40;;;;;;5033344;28;20970;-73
2022/09/05 14:15:23;;;;;;;4.53;1.80;;;27.30;52.40;;;;;;5036131;28;20765;-73
2022/09/05 14:18:01;;;;;;;4.00;1.60;;;27.30;52.40;;;;;;5040142;28;20447;-73
2022/09/05 14:23:47;;;;;;;4.57;1.97;;;27.40;52.40;;;;;;5042333;28;20457;-74
2022/09/05 14:26:21;;;;;;;4.80;1.90;;;27.40;52.30;;;;;;5024621;28;20468;-73
2022/09/05 14:29:03;;;;;;;6.20;1.83;;;27.40;52.20;;;;;;5037282;28;20462;-73
2022/09/05 14:31:50;;;;;;;8.53;1.87;;;27.40;51.90;;;;;;5040921;28;20488;-73
2022/09/05 14:34:56;;;;;;;4.30;1.70;;;27.40;52.10;;;;;;5041028;28;20475;-73
2022/09/05 14:37:53;;;;;;;4.80;2.00;;;27.40;51.90;;;;;;5046886;28;20471;-73
2022/09/05 14:41:27;;;;;;;4.80;1.60;;;27.40;52.10;;;;;;5041157;28;20482;-73